createdAt,value
2023-01-09T00:05:25.740Z,6.9
2023-01-09T00:07:25.482Z,6.9
2023-01-09T00:09:25.281Z,6.9
2023-01-09T00:11:24.974Z,6.9
2023-01-09T00:17:27.727Z,6.7
2023-01-09T00:19:27.475Z,6.7
2023-01-09T00:21:27.290Z,6.7
2023-01-09T00:25:26.874Z,6.6
2023-01-09T00:27:26.683Z,6.7
2023-01-09T00:29:29.916Z,6.6
2023-01-09T00:31:29.653Z,6.6
2023-01-09T00:33:29.442Z,6.6
2023-01-09T00:35:51.359Z,6.6
2023-01-09T00:37:51.155Z,6.6
2023-01-09T00:39:50.906Z,6.6
2023-01-09T00:41:53.993Z,6.5
2023-01-09T00:43:53.745Z,6.5
2023-01-09T00:45:53.588Z,6.5
2023-01-09T00:53:52.492Z,6.4
2023-01-09T00:55:55.712Z,6.4
2023-01-09T00:57:55.493Z,6.3
2023-01-09T00:59:55.204Z,6.3
2023-01-09T01:01:55.114Z,6.3
2023-01-09T01:03:54.708Z,6.3
2023-01-09T01:05:54.476Z,6.3
2023-01-09T01:07:54.326Z,6.2
2023-01-09T01:09:57.471Z,6.2
2023-01-09T01:11:57.274Z,6.2
2023-01-09T01:13:57.041Z,6.2
2023-01-09T01:15:56.830Z,6.2
2023-01-09T01:19:56.442Z,6.1
2023-01-09T01:21:56.171Z,6.1
2023-01-09T01:23:59.427Z,6
2023-01-09T01:29:00.535Z,5.9
2023-01-09T01:31:00.488Z,5.8
2023-01-09T01:35:00.035Z,5.8
2023-01-09T01:37:03.252Z,5.7
2023-01-09T01:51:05.431Z,5.5
2023-01-09T01:53:05.319Z,5.5
2023-01-09T01:55:05.188Z,5.5
2023-01-09T01:57:05.053Z,5.5
2023-01-09T01:59:04.894Z,5.4
2023-01-09T02:01:04.905Z,5.5
2023-01-09T02:03:04.579Z,5.4
2023-01-09T02:05:07.813Z,5.4
2023-01-09T02:07:07.655Z,5.3
2023-01-09T02:09:07.511Z,5.4
2023-01-09T02:11:07.377Z,5.4
2023-01-09T02:13:07.164Z,5.3
2023-01-09T02:15:07.050Z,5.2
2023-01-09T02:17:06.911Z,5.3
2023-01-09T02:19:10.263Z,5.2
2023-01-09T02:21:10.031Z,5.3
2023-01-09T02:23:09.908Z,5.2
2023-01-09T02:28:11.125Z,5.4
2023-01-09T02:30:10.979Z,5.4
2023-01-09T02:32:14.337Z,5.3
2023-01-09T02:34:14.200Z,5.3
2023-01-09T02:36:14.071Z,5.3
2023-01-09T02:38:13.899Z,5.3
2023-01-09T02:40:13.682Z,5.4
2023-01-09T02:42:13.501Z,5.4
2023-01-09T02:44:13.357Z,5.4
2023-01-09T02:46:16.609Z,5.3
2023-01-09T02:48:16.379Z,5.3
2023-01-09T02:50:16.251Z,5.4
2023-01-09T02:52:16.104Z,5.3
2023-01-09T02:54:15.995Z,5.3
2023-01-09T02:56:15.843Z,5.4
2023-01-09T02:58:15.729Z,5.3
2023-01-09T03:00:19.038Z,5.3
2023-01-09T03:02:18.847Z,5.2
2023-01-09T03:04:18.690Z,5.3
2023-01-09T03:06:18.439Z,5.3
2023-01-09T03:08:18.223Z,5.4
2023-01-09T03:10:18.007Z,5.3
2023-01-09T03:12:17.874Z,5.3
2023-01-09T03:14:21.262Z,5.3
2023-01-09T03:16:21.179Z,5.2
2023-01-09T03:18:20.977Z,5.2
2023-01-09T03:19:22.534Z,5.2
2023-01-09T03:21:22.311Z,5.1
2023-01-09T03:23:22.103Z,5.2
2023-01-09T03:25:21.869Z,5
2023-01-09T03:27:25.215Z,5.1
2023-01-09T03:29:24.979Z,5
2023-01-09T03:31:24.824Z,4.9
2023-01-09T03:33:24.616Z,5
2023-01-09T03:35:24.465Z,4.9
2023-01-09T03:37:24.264Z,5
2023-01-09T03:39:24.030Z,5
2023-01-09T03:41:27.376Z,5
2023-01-09T03:43:27.159Z,4.9
2023-01-09T03:45:27.109Z,4.9
2023-01-09T03:47:26.889Z,4.9
2023-01-09T03:49:26.806Z,4.9
2023-01-09T03:51:26.611Z,4.9
2023-01-09T03:53:26.404Z,4.9
2023-01-09T03:55:29.635Z,4.8
2023-01-09T03:59:29.384Z,4.9
2023-01-09T04:01:29.370Z,4.8
2023-01-09T04:03:29.094Z,4.8
2023-01-09T04:07:28.820Z,4.9
2023-01-09T04:09:32.061Z,4.9
2023-01-09T04:11:31.910Z,4.9
2023-01-09T04:13:31.745Z,4.9
2023-01-09T04:15:53.572Z,4.8
2023-01-09T04:17:53.446Z,4.8
2023-01-09T04:23:56.393Z,4.9
2023-01-09T04:25:56.210Z,4.8
2023-01-09T04:27:56.090Z,4.8
2023-01-09T04:29:55.978Z,4.8
2023-01-09T04:31:55.921Z,4.8
2023-01-09T04:43:58.365Z,4.7
2023-01-09T04:45:58.338Z,4.7
2023-01-09T04:47:58.121Z,4.7
2023-01-09T04:50:01.494Z,4.6
2023-01-09T04:52:01.389Z,4.7
2023-01-09T04:54:01.237Z,4.7
2023-01-09T04:56:01.144Z,4.6
2023-01-09T05:00:00.887Z,4.7
2023-01-09T05:04:03.963Z,4.6
2023-01-09T05:06:03.805Z,4.6
2023-01-09T05:08:03.685Z,4.6
2023-01-09T05:09:05.393Z,4.5
2023-01-09T05:11:05.238Z,4.6
2023-01-09T05:15:04.894Z,4.6
2023-01-09T05:17:09.859Z,4.7
2023-01-09T05:19:09.731Z,4.8
2023-01-09T05:21:09.583Z,4.8
2023-01-09T05:23:09.477Z,4.9
2023-01-09T05:25:09.350Z,4.9
2023-01-09T05:27:09.217Z,5
2023-01-09T05:29:09.095Z,4.9
2023-01-09T05:31:12.463Z,5
2023-01-09T05:33:12.351Z,5
2023-01-09T05:35:12.233Z,5
2023-01-09T05:37:12.140Z,5.1
2023-01-09T05:39:12.002Z,5.1
2023-01-09T05:41:11.820Z,5.1
2023-01-09T05:43:11.621Z,5.1
2023-01-09T05:45:14.964Z,5.1
2023-01-09T05:47:14.782Z,5
2023-01-09T05:49:14.619Z,5
2023-01-09T05:51:14.486Z,5
2023-01-09T05:53:14.356Z,5.1
2023-01-09T05:55:14.239Z,5.1
2023-01-09T05:57:14.233Z,5.2
2023-01-09T05:59:17.361Z,5.2
2023-01-09T06:01:17.326Z,5.2
2023-01-09T06:03:17.254Z,5
2023-01-09T06:10:18.214Z,5.1
2023-01-09T06:12:21.483Z,5.1
2023-01-09T06:14:21.371Z,5.2
2023-01-09T06:16:21.258Z,5.3
2023-01-09T06:18:21.186Z,5.3
2023-01-09T06:20:20.985Z,5.4
2023-01-09T06:22:20.868Z,5.4
2023-01-09T06:24:20.727Z,5.3
2023-01-09T06:26:24.103Z,5.3
2023-01-09T06:28:23.866Z,5.3
2023-01-09T06:30:23.734Z,5.3
2023-01-09T06:32:23.623Z,5.2
2023-01-09T06:34:23.463Z,5.3
2023-01-09T06:36:23.240Z,5.3
2023-01-09T06:38:23.109Z,5.3
2023-01-09T06:40:26.461Z,5.4
2023-01-09T06:42:26.338Z,5.4
2023-01-09T06:50:25.584Z,5.5
2023-01-09T06:52:25.452Z,5.5
2023-01-09T06:56:28.561Z,5.5
2023-01-09T06:58:28.436Z,5.6
2023-01-09T06:59:30.083Z,5.6
2023-01-09T07:01:29.967Z,5.6
2023-01-09T07:03:29.727Z,5.6
2023-01-09T07:05:29.596Z,5.6
2023-01-09T07:07:32.956Z,5.6
2023-01-09T07:09:32.781Z,5.6
2023-01-09T07:11:32.636Z,5.6
2023-01-09T07:13:32.380Z,5.7
2023-01-09T07:15:32.218Z,5.6
2023-01-09T07:17:32.003Z,5.7
2023-01-09T07:19:31.865Z,5.7
2023-01-09T07:21:35.239Z,5.7
2023-01-09T07:23:35.110Z,5.7
2023-01-09T07:27:34.674Z,5.7
2023-01-09T07:29:34.471Z,5.7
2023-01-09T07:31:34.279Z,5.7
2023-01-09T07:39:37.002Z,5.8
2023-01-09T07:41:36.871Z,5.8
2023-01-09T07:43:36.743Z,5.9
2023-01-09T07:45:36.597Z,5.9
2023-01-09T07:47:36.429Z,5.9
2023-01-09T07:49:39.682Z,6
2023-01-09T07:53:39.264Z,6
2023-01-09T07:56:00.806Z,5.9
2023-01-09T08:00:00.543Z,5.9
2023-01-09T08:02:03.843Z,5.9
2023-01-09T08:04:03.629Z,5.9
2023-01-09T08:06:03.572Z,5.9
2023-01-09T08:08:03.166Z,6
2023-01-09T08:10:03.046Z,6
2023-01-09T08:12:02.901Z,6
2023-01-09T08:14:02.742Z,6
2023-01-09T08:16:06.224Z,6
2023-01-09T08:18:05.727Z,6
2023-01-09T08:20:05.522Z,6
2023-01-09T08:22:05.270Z,6
2023-01-09T08:24:05.019Z,5.9
2023-01-09T08:26:04.801Z,5.9
2023-01-09T08:28:04.533Z,5.9
2023-01-09T08:30:07.836Z,5.9
2023-01-09T08:32:07.680Z,5.9
2023-01-09T08:34:07.405Z,5.9
2023-01-09T08:36:07.239Z,5.9
2023-01-09T08:38:07.068Z,5.9
2023-01-09T08:42:06.653Z,5.9
2023-01-09T08:44:10.056Z,5.9
2023-01-09T08:46:09.824Z,5.9
2023-01-09T08:48:09.666Z,5.9
2023-01-09T08:53:10.936Z,6
2023-01-09T08:55:10.827Z,6
2023-01-09T08:57:14.079Z,6
2023-01-09T08:59:13.890Z,6
2023-01-09T09:01:13.715Z,5.9
2023-01-09T09:03:13.532Z,5.9
2023-01-09T09:05:13.313Z,5.8
2023-01-09T09:07:13.185Z,5.7
2023-01-09T09:09:12.923Z,5.7
2023-01-09T09:11:16.179Z,5.6
2023-01-09T09:13:16.009Z,5.6
2023-01-09T09:15:15.812Z,5.6
2023-01-09T09:17:15.765Z,5.7
2023-01-09T09:19:15.446Z,5.7
2023-01-09T09:21:15.288Z,5.7
2023-01-09T09:23:15.161Z,5.7
2023-01-09T09:25:18.287Z,5.7
2023-01-09T09:27:18.082Z,5.7
2023-01-09T09:29:17.877Z,5.7
2023-01-09T09:31:17.730Z,5.7
2023-01-09T09:33:17.421Z,5.7
2023-01-09T09:35:17.300Z,5.7
2023-01-09T09:37:17.166Z,5.8
2023-01-09T09:39:20.511Z,5.8
2023-01-09T09:41:20.342Z,5.8
2023-01-09T09:44:21.781Z,5.8
2023-01-09T09:46:21.658Z,5.9
2023-01-09T09:50:21.363Z,5.9
2023-01-09T09:52:24.691Z,5.9
2023-01-09T09:54:24.546Z,6
2023-01-09T09:56:24.312Z,5.9
2023-01-09T10:00:23.930Z,6
2023-01-09T10:06:26.986Z,6.3
2023-01-09T10:10:26.505Z,6.3
2023-01-09T10:14:26.174Z,6.3
2023-01-09T10:16:25.950Z,6.4
2023-01-09T10:18:25.674Z,6.4
2023-01-09T10:22:28.568Z,6.4
2023-01-09T10:24:28.388Z,6.4
2023-01-09T10:26:28.158Z,6.4
2023-01-09T10:28:27.937Z,6.4
2023-01-09T10:30:27.780Z,6.5
2023-01-09T10:32:27.510Z,6.5
2023-01-09T10:34:30.687Z,6.5
2023-01-09T10:38:30.192Z,6.5
2023-01-09T10:39:31.829Z,6.6
2023-01-09T10:41:31.585Z,6.6
2023-01-09T10:43:31.333Z,6.5
2023-01-09T10:45:31.108Z,6.5
2023-01-09T10:47:34.285Z,6.5
2023-01-09T10:49:33.996Z,6.5
2023-01-09T10:51:33.882Z,6.5
2023-01-09T10:53:33.723Z,6.4
2023-01-09T10:57:33.235Z,6.4
2023-01-09T11:01:37.939Z,6.3
2023-01-09T11:03:37.613Z,6.3
2023-01-09T11:05:37.319Z,6.2
2023-01-09T11:09:36.876Z,6.3
2023-01-09T11:11:36.747Z,6.4
2023-01-09T11:13:36.596Z,6.4
2023-01-09T11:15:39.833Z,6.5
2023-01-09T11:17:39.696Z,6.6
2023-01-09T11:19:39.443Z,6.6
2023-01-09T11:21:39.331Z,6.7
2023-01-09T11:23:39.045Z,6.8
2023-01-09T11:25:38.904Z,6.8
2023-01-09T11:27:38.756Z,6.8
2023-01-09T11:29:41.905Z,6.9
2023-01-09T11:31:41.755Z,6.9
2023-01-09T11:33:41.533Z,7
2023-01-09T11:36:01.007Z,7
2023-01-09T11:38:00.735Z,7
2023-01-09T11:40:00.553Z,7.1
2023-01-09T11:42:03.658Z,7.1
2023-01-09T11:44:03.346Z,7.1
2023-01-09T11:50:02.596Z,7.3
2023-01-09T11:52:02.377Z,7.4
2023-01-09T11:54:02.203Z,7.4
2023-01-09T11:56:05.348Z,7.5
2023-01-09T11:58:05.101Z,7.4
2023-01-09T12:00:04.885Z,7.4
2023-01-09T12:02:04.619Z,7.5
2023-01-09T12:04:04.372Z,7.6
2023-01-09T12:06:04.210Z,7.7
2023-01-09T12:08:03.912Z,7.7
2023-01-09T12:10:07.069Z,7.6
2023-01-09T12:12:06.785Z,7.5
2023-01-09T12:14:06.556Z,7.5
2023-01-09T12:16:06.371Z,7.6
2023-01-09T12:18:06.039Z,7.7
2023-01-09T12:20:05.777Z,7.7
2023-01-09T12:22:05.567Z,8.3
2023-01-09T12:24:08.652Z,8.8
2023-01-09T12:26:08.432Z,9
2023-01-09T12:28:08.099Z,10.5
2023-01-09T12:29:09.675Z,10.3
2023-01-09T12:31:09.425Z,10.2
2023-01-09T12:33:09.112Z,10.1
2023-01-09T12:35:08.839Z,9.7
2023-01-09T12:37:12.039Z,10.9
2023-01-09T12:39:11.685Z,10.5
2023-01-09T12:41:11.406Z,9.8
2023-01-09T12:47:10.547Z,10.1
2023-01-09T12:49:10.261Z,10
2023-01-09T12:53:13.055Z,10.2
2023-01-09T12:55:12.772Z,10.6
2023-01-09T12:57:12.439Z,10.1
2023-01-09T12:59:12.146Z,9.9
2023-01-09T13:01:11.846Z,9.4
2023-01-09T13:05:14.597Z,8.7
2023-01-09T13:07:14.315Z,8.5
2023-01-09T13:09:13.958Z,8.2
2023-01-09T13:11:19.993Z,8.1
2023-01-09T13:13:13.389Z,8
2023-01-09T13:15:13.056Z,7.9
2023-01-09T13:17:12.778Z,7.9
2023-01-09T13:19:15.905Z,7.8
2023-01-09T13:21:15.582Z,7.8
2023-01-09T13:23:15.296Z,7.7
2023-01-09T13:30:15.992Z,7.7
2023-01-09T13:32:19.087Z,7.7
2023-01-09T13:34:22.585Z,7.6
2023-01-09T13:36:19.247Z,7.7
2023-01-09T13:38:18.231Z,7.7
2023-01-09T13:40:17.931Z,7.6
2023-01-09T13:42:17.669Z,7.5
2023-01-09T13:46:20.513Z,7.3
2023-01-09T13:48:20.221Z,7.3
2023-01-09T13:50:19.949Z,7.3
2023-01-09T13:52:19.693Z,7.3
2023-01-09T13:54:19.453Z,7.2
2023-01-09T13:56:20.190Z,7.2
2023-01-09T13:58:18.909Z,7.2
2023-01-09T14:00:22.022Z,7.1
2023-01-09T14:02:21.854Z,7.1
2023-01-09T14:04:21.460Z,7.1
2023-01-09T14:06:21.187Z,7.1
2023-01-09T14:08:20.920Z,7.1
2023-01-09T14:12:20.403Z,7.1
2023-01-09T14:18:22.967Z,7.1
2023-01-09T14:19:24.539Z,7.2
2023-01-09T14:21:24.256Z,7.2
2023-01-09T14:23:46.125Z,7.3
2023-01-09T14:25:23.841Z,7.3
2023-01-09T14:27:26.998Z,7.4
2023-01-09T14:29:26.739Z,7.4
2023-01-09T14:31:26.630Z,7.5
2023-01-09T14:33:26.306Z,7.5
2023-01-09T14:35:26.023Z,7.5
2023-01-09T14:37:25.740Z,7.5
2023-01-09T14:39:25.478Z,7.5
2023-01-09T14:41:28.629Z,7.4
2023-01-09T14:43:28.380Z,7.3
2023-01-09T14:45:28.144Z,7.3
2023-01-09T14:47:27.880Z,7.4
2023-01-09T14:49:27.620Z,7.5
2023-01-09T14:51:27.349Z,7.3
2023-01-09T14:53:27.212Z,7.2
2023-01-09T14:55:30.534Z,7.2
2023-01-09T14:57:30.275Z,7.1
2023-01-09T14:59:30.105Z,7.1
2023-01-09T15:01:30.000Z,7
2023-01-09T15:03:29.663Z,6.9
2023-01-09T15:05:29.419Z,6.8
2023-01-09T15:07:29.142Z,6.8
2023-01-09T15:09:32.316Z,6.7
2023-01-09T15:11:32.149Z,6.7
2023-01-09T15:15:53.810Z,6.6
2023-01-09T15:17:53.521Z,6.5
2023-01-09T15:19:53.303Z,6.6
2023-01-09T15:31:55.635Z,6.5
2023-01-09T15:33:55.423Z,6.6
2023-01-09T15:35:58.796Z,6.6
2023-01-09T15:37:58.601Z,6.6
2023-01-09T15:39:58.437Z,6.6
2023-01-09T15:41:58.294Z,6.5
2023-01-09T15:43:58.061Z,6.5
2023-01-09T15:45:58.069Z,6.5
2023-01-09T15:47:57.673Z,6.5
2023-01-09T15:50:00.909Z,6.4
2023-01-09T15:52:00.779Z,6.3
2023-01-09T15:54:00.532Z,6.3
2023-01-09T15:56:00.395Z,6.4
2023-01-09T15:58:00.143Z,6.3
2023-01-09T15:59:59.872Z,6.2
2023-01-09T16:01:59.807Z,6.2
2023-01-09T16:04:02.971Z,6.1
2023-01-09T16:06:02.819Z,6.2
2023-01-09T16:08:02.624Z,6.1
2023-01-09T16:13:03.844Z,6.1
2023-01-09T16:15:03.611Z,6.2
2023-01-09T16:19:06.595Z,6.1
2023-01-09T16:21:06.326Z,6
2023-01-09T16:23:06.168Z,6
2023-01-09T16:25:06.001Z,6.1
2023-01-09T16:27:05.751Z,6.1
2023-01-09T16:31:08.762Z,6.1
2023-01-09T16:33:08.596Z,6.1
2023-01-09T16:35:08.395Z,6.1
2023-01-09T16:37:08.263Z,6.1
2023-01-09T16:41:07.872Z,5.9
2023-01-09T16:45:11.034Z,5.9
2023-01-09T16:47:12.494Z,5.9
2023-01-09T16:49:12.133Z,5.9
2023-01-09T16:51:11.911Z,5.9
2023-01-09T16:53:11.627Z,5.9
2023-01-09T16:55:11.479Z,5.9
2023-01-09T16:57:11.316Z,5.8
2023-01-09T17:01:14.527Z,5.8
2023-01-09T17:03:14.372Z,5.9
2023-01-09T17:04:15.872Z,5.9
2023-01-09T17:06:15.680Z,5.8
2023-01-09T17:08:15.455Z,5.9
2023-01-09T17:10:15.284Z,5.8
2023-01-09T17:12:18.531Z,5.9
2023-01-09T17:14:18.350Z,5.9
2023-01-09T17:16:18.250Z,5.9
2023-01-09T17:18:18.007Z,6
2023-01-09T17:24:17.323Z,5.9
2023-01-09T17:26:20.564Z,5.9
2023-01-09T17:28:20.305Z,5.9
2023-01-09T17:30:20.306Z,5.8
2023-01-09T17:32:19.911Z,5.9
2023-01-09T17:34:19.777Z,5.9
2023-01-09T17:36:19.598Z,5.9
2023-01-09T17:40:22.517Z,6
2023-01-09T17:42:22.260Z,6
2023-01-09T17:44:22.112Z,6
2023-01-09T17:46:21.978Z,6
2023-01-09T17:48:21.826Z,6
2023-01-09T17:50:21.576Z,6.1
2023-01-09T17:52:21.424Z,6.1
2023-01-09T17:59:27.572Z,6.3
2023-01-09T18:01:25.880Z,6.3
2023-01-09T18:03:25.654Z,6.2
2023-01-09T18:05:25.420Z,6.3
2023-01-09T18:07:28.749Z,6.3
2023-01-09T18:09:28.609Z,6.2
2023-01-09T18:11:28.367Z,6.2
2023-01-09T18:13:28.175Z,6.1
2023-01-09T18:15:28.024Z,6
2023-01-09T18:17:27.863Z,5.9
2023-01-09T18:19:27.575Z,5.9
2023-01-09T18:21:30.893Z,5.8
2023-01-09T18:29:30.316Z,5.7
2023-01-09T18:31:30.138Z,5.7
2023-01-09T18:33:29.819Z,5.7
2023-01-09T18:35:33.060Z,5.7
2023-01-09T18:37:32.933Z,5.7
2023-01-09T18:39:32.808Z,5.8
2023-01-09T18:41:32.594Z,5.9
2023-01-09T18:43:32.368Z,5.9
2023-01-09T18:45:32.181Z,5.8
2023-01-09T18:47:32.745Z,5.9
2023-01-09T18:57:57.238Z,5.7
2023-01-09T19:07:59.594Z,5.9
2023-01-09T19:09:59.367Z,6
2023-01-09T19:11:59.194Z,6
2023-01-09T19:13:58.953Z,6
2023-01-09T19:16:02.627Z,5.9
2023-01-09T19:18:02.053Z,5.9
2023-01-09T19:20:01.800Z,5.9
2023-01-09T19:22:01.668Z,5.9
2023-01-09T19:24:01.495Z,5.9
2023-01-09T19:26:01.379Z,5.9
2023-01-09T19:28:01.105Z,5.9
2023-01-09T19:30:04.224Z,5.9
2023-01-09T19:32:03.991Z,6
2023-01-09T19:34:03.857Z,6
2023-01-09T19:36:03.715Z,6
2023-01-09T19:38:03.540Z,6
2023-01-09T19:40:03.392Z,6
2023-01-09T19:42:03.120Z,6
2023-01-09T19:44:06.406Z,6
2023-01-09T19:46:06.359Z,5.9
2023-01-09T19:48:06.085Z,6
2023-01-09T19:49:07.660Z,5.9
2023-01-09T19:51:07.442Z,5.9
2023-01-09T19:53:07.271Z,6
2023-01-09T19:55:07.101Z,6.1
2023-01-09T19:57:10.348Z,6.1
2023-01-09T19:59:10.212Z,6.1
2023-01-09T20:01:10.135Z,6.1
2023-01-09T20:03:09.915Z,6.1
2023-01-09T20:05:09.683Z,6.1
2023-01-09T20:07:09.526Z,6.1
2023-01-09T20:09:09.350Z,6.2
2023-01-09T20:11:12.693Z,6.1
2023-01-09T20:15:12.296Z,6.1
2023-01-09T20:17:12.025Z,6.1
2023-01-09T20:21:11.633Z,6
2023-01-09T20:23:11.442Z,6
2023-01-09T20:25:14.712Z,5.9
2023-01-09T20:27:14.544Z,5.9
2023-01-09T20:29:14.271Z,5.8
2023-01-09T20:31:14.085Z,5.8
2023-01-09T20:35:13.767Z,5.6
2023-01-09T20:37:13.656Z,5.6
2023-01-09T20:41:16.713Z,5.5
2023-01-09T20:43:16.504Z,5.5
2023-01-09T20:44:18.153Z,5.6
2023-01-09T20:50:17.623Z,5.6
2023-01-09T20:52:20.983Z,5.4
2023-01-09T20:54:20.877Z,5.5
2023-01-09T20:56:20.621Z,5.5
2023-01-09T20:58:20.476Z,5.5
2023-01-09T21:00:20.347Z,5.5
2023-01-09T21:02:20.146Z,5.6
2023-01-09T21:04:20.065Z,5.6
2023-01-09T21:06:23.273Z,5.7
2023-01-09T21:08:23.047Z,5.7
2023-01-09T21:10:22.906Z,5.6
2023-01-09T21:12:22.772Z,5.6
2023-01-09T21:14:22.621Z,5.7
2023-01-09T21:16:22.533Z,5.6
2023-01-09T21:18:22.344Z,5.6
2023-01-09T21:20:25.598Z,5.4
2023-01-09T21:22:25.461Z,5.4
2023-01-09T21:24:25.280Z,5.3
2023-01-09T21:26:25.012Z,5.4
2023-01-09T21:28:24.791Z,5.5
2023-01-09T21:30:24.663Z,5.5
2023-01-09T21:32:24.386Z,5.6
2023-01-09T21:34:28.318Z,5.6
2023-01-09T21:39:29.689Z,5.6
2023-01-09T21:41:29.539Z,5.5
2023-01-09T21:43:29.375Z,5.6
2023-01-09T21:45:29.286Z,5.6
2023-01-09T21:47:32.519Z,5.4
2023-01-09T21:49:32.335Z,5.4
2023-01-09T21:51:32.083Z,5.4
2023-01-09T21:53:31.887Z,5.4
2023-01-09T21:55:31.727Z,5.2
2023-01-09T21:57:31.555Z,5.1
2023-01-09T21:59:31.326Z,5.2
2023-01-09T22:01:34.610Z,5.1
2023-01-09T22:03:34.481Z,5.1
2023-01-09T22:11:33.896Z,5
2023-01-09T22:13:33.766Z,4.9
2023-01-09T22:15:37.125Z,4.9
2023-01-09T22:17:36.977Z,4.9
2023-01-09T22:21:36.719Z,4.9
2023-01-09T22:23:36.565Z,4.9
2023-01-09T22:25:36.419Z,4.9
2023-01-09T22:27:36.302Z,4.9
2023-01-09T22:29:39.673Z,4.9
2023-01-09T22:31:39.604Z,4.9
2023-01-09T22:33:40.927Z,4.9
2023-01-09T22:36:00.453Z,4.9
2023-01-09T22:38:00.339Z,4.9
2023-01-09T22:40:00.190Z,4.8
2023-01-09T22:42:03.516Z,4.6
2023-01-09T22:44:03.387Z,4.6
2023-01-09T22:46:03.304Z,4.5
2023-01-09T22:48:03.114Z,4.5
2023-01-09T22:50:02.939Z,4.5
2023-01-09T22:52:02.747Z,4.4
2023-01-09T22:54:02.627Z,4.4
2023-01-09T22:56:05.977Z,4.4
2023-01-09T22:58:05.805Z,4.3
2023-01-09T23:00:05.694Z,4.3
2023-01-09T23:02:05.795Z,4.4
2023-01-09T23:04:05.439Z,4.3
2023-01-09T23:06:05.348Z,4.3
2023-01-09T23:08:05.178Z,4.3
2023-01-09T23:10:08.579Z,4.4
2023-01-09T23:12:08.467Z,4.4
2023-01-09T23:14:08.334Z,4.5
2023-01-09T23:16:08.171Z,4.6
2023-01-09T23:18:08.075Z,4.6
2023-01-09T23:20:07.932Z,4.6
2023-01-09T23:22:07.799Z,4.6
2023-01-09T23:24:11.190Z,4.7
2023-01-09T23:26:11.075Z,4.6
2023-01-09T23:28:10.951Z,4.6
2023-01-09T23:29:12.655Z,4.5
2023-01-09T23:31:12.414Z,4.7
2023-01-09T23:33:12.267Z,4.7
2023-01-09T23:35:12.134Z,4.8
2023-01-09T23:37:15.538Z,4.7
2023-01-09T23:39:15.283Z,4.8
2023-01-09T23:41:15.168Z,5
2023-01-09T23:43:15.108Z,5
2023-01-09T23:45:14.929Z,5
2023-01-09T23:47:14.804Z,5
2023-01-09T23:53:17.889Z,4.9
